Latest Coastal Weather Observations for Dunalley

IDT60701

Issued at 12:05 pm EST Thursday 24 April 2014 (issued every 10 minutes, with the page automatically refreshed every 10 minutes)

About coastal observations | Map of coastal stations | Coastal observations for TAS | Marine services | Other Formats
Station Details ID: 094254 Name: DUNALLEY (STROUD POINT) Lat: -42.90 Lon: 147.79 Height: 12.43 m
Data from the previous 72 hours. | See also: Recent months at Dunalley
Date/Time
EST
Temp

°C
Wind Pressure Rain
since 9am
mm
Weather Cloud Vis
km
Sea
Height
m
Swell
Dir
 
Speed
knots
Gust
knots
hPa Trend Height
m
Period
s
Dir
24/12:00pm 12.0 W 24 29 1006.2 - 0.0 - - - - - - -
24/11:30am 11.5 W 27 34 1006.0 - 0.0 - - - - - - -
24/11:16am 12.0 W 25 36 1006.1 - 0.0 - - - - - - -
24/11:00am 11.3 W 26 30 1005.7 - 0.0 - - - - - - -
24/10:30am 10.9 W 23 27 1004.9 - 0.0 - - - - - - -
24/10:07am 10.9 W 27 38 1004.5 - 0.0 - - - - - - -
24/10:00am 10.9 W 30 38 1004.3 - 0.0 - - - - - - -
24/09:52am 11.9 W 31 34 1004.0 - 0.0 - - - - - - -
24/09:42am 11.5 W 19 31 1003.6 - 0.0 - - - - - - -
24/09:30am 11.7 WSW 22 27 1003.3 - 0.0 - - - - - - -
24/09:00am 11.8 W 24 29 1002.9 - 2.4 - - - - - - -
24/08:51am 11.6 W 22 26 1002.8 - 2.4 - - - - - - -
24/08:30am 11.0 W 12 16 1002.8 - 2.4 - - - - - - -
24/08:00am 10.0 W 11 18 1002.3 - 2.4 - - - - - - -
24/07:30am 10.0 NW 11 16 1001.6 - 2.4 - - - - - - -
24/07:00am 9.8 WNW 10 15 1000.1 - 2.4 - - - - - - -
24/06:30am 9.9 WNW 9 15 1000.1 - 2.4 - - - - - - -
24/06:00am 10.4 W 8 11 1001.0 - 2.0 Recent precip. - - - - - -
24/05:53am 10.8 W 7 10 1000.7 - 2.0 - - - - - - -
24/05:30am 11.8 WSW 20 24 1000.6 - 1.6 - - - - - - -
24/05:09am 11.9 WSW 24 27 1000.3 - 1.2 - - - - - - -
24/05:00am 12.6 W 20 27 1000.1 - 1.0 - - - - - - -
24/04:59am 12.5 W 19 27 1000.1 - 0.8 - - - - - - -
24/04:30am 13.3 N 10 16 998.5 - 0.0 - - - - - - -
24/04:00am 13.2 NNE 14 21 998.6 - 0.0 - - - - - - -
24/03:30am 13.3 N 11 21 998.9 - 0.0 - - - - - - -
24/03:00am 13.7 N 14 20 999.5 - 0.0 - - - - - - -
24/02:30am 14.2 N 14 25 1000.1 - 0.0 - - - - - - -
24/02:00am 14.2 N 15 22 1000.9 - 0.0 - - - - - - -
24/01:36am 14.5 N 15 29 1001.6 - 0.0 - - - - - - -
24/01:30am 14.7 NNW 13 29 1001.7 - 0.0 - - - - - - -
24/01:00am 13.9 N 8 13 1002.6 - 0.0 - - - - - - -
24/12:30am 13.6 NNE 2 4 1003.3 - 0.0 - - - - - - -
24/12:00am 13.4 N 7 13 1003.8 - 0.0 - - - - - - -
 
Date/Time
EST
Temp

°C
Wind Pressure Rain
since 9am
mm
Weather Cloud Vis
km
Sea
Height
m
Swell
Dir
 
Speed
knots
Gust
knots
hPa Trend Height
m
Period
s
Dir
23/11:30pm 12.5 NE 9 11 1004.2 - 0.0 - - - - - - -
23/11:00pm 12.3 N 6 9 1005.0 - 0.0 - - - - - - -
23/10:30pm 13.2 N 7 15 1005.6 - 0.0 - - - - - - -
23/10:00pm 13.5 N 6 10 1006.1 - 0.0 - - - - - - -
23/09:30pm 13.4 N 7 12 1006.5 - 0.0 - - - - - - -
23/09:00pm 13.0 NNE 5 7 1006.7 - 0.0 - - - - - - -
23/08:30pm 13.5 NNE 9 11 1006.9 - 0.0 - - - - - - -
23/08:00pm 13.8 NNE 10 13 1007.3 - 0.0 - - - - - - -
23/07:30pm 13.8 N 7 11 1007.4 - 0.0 - - - - - - -
23/07:00pm 13.9 N 7 10 1007.6 - 0.0 - - - - - - -
23/06:30pm 14.0 N 6 11 1007.9 - 0.0 - - - - - - -
23/06:00pm 14.2 NNW 6 10 1007.9 - 0.0 - - - - - - -
23/05:30pm 13.2 NNW 5 6 1007.9 - 0.0 - - - - - - -
23/05:00pm 15.2 NNW 2 3 1008.2 - 0.0 - - - - - - -
23/04:30pm 15.7 NNW 5 6 1008.3 - 0.0 - - - - - - -
23/04:00pm 16.7 NW 3 4 1008.8 - 0.0 - - - - - - -
23/03:30pm 16.8 NW 5 8 1009.0 - 0.0 - - - - - - -
23/03:00pm 16.8 NNW 3 4 1009.3 - 0.0 - - - - - - -
23/02:30pm 16.8 N 4 7 1009.4 - 0.0 - - - - - - -
23/02:00pm 17.1 N 7 10 1010.0 - 0.0 - - - - - - -
23/01:30pm 16.9 N 5 9 1010.4 - 0.0 - - - - - - -
23/01:00pm 16.7 N 5 8 1010.7 - 0.0 - - - - - - -
23/12:30pm 17.0 N 7 12 1011.1 - 0.0 - - - - - - -
23/12:00pm 16.6 NW 9 13 1011.6 - 0.0 - - - - - - -
23/11:30am 16.3 NW 5 8 1012.1 - 0.0 - - - - - - -
23/11:00am 16.2 N 5 8 1012.4 - 0.0 - - - - - - -
23/10:30am 15.4 N 3 7 1012.8 - 0.0 - - - - - - -
23/10:00am 15.2 N 5 11 1013.4 - 0.0 - - - - - - -
23/09:30am 14.2 N 5 8 1013.9 - 0.0 - - - - - - -
23/09:00am 14.2 NNW 5 9 1014.0 - 0.0 - - - - - - -
23/08:30am 13.7 N 6 9 1014.0 - 0.0 - - - - - - -
23/08:00am 12.7 N 3 6 1013.9 - 0.0 - - - - - - -
23/07:30am 11.3 NNW 5 7 1014.0 - 0.0 - - - - - - -
23/07:00am 10.6 NNW 6 8 1013.8 - 0.0 - - - - - - -
23/06:30am 11.0 NNW 7 8 1013.8 - 0.0 - - - - - - -
23/06:00am 11.0 NNW 7 9 1013.8 - 0.0 - - - - - - -
23/05:30am 11.4 NNW 7 10 1013.8 - 0.0 - - - - - - -
23/05:00am 11.1 NNW 4 8 1013.7 - 0.0 - - - - - - -
23/04:30am 11.0 NNW 6 8 1013.6 - 0.0 - - - - - - -
23/04:00am 10.8 NW 5 8 1013.5 - 0.0 - - - - - - -
23/03:30am 11.5 NNW 7 10 1013.3 - 0.0 - - - - - - -
23/03:00am 10.4 NNW 7 10 1013.5 - 0.0 - - - - - - -
23/02:30am 11.6 NW 8 12 1013.5 - 0.0 - - - - - - -
23/02:00am 11.2 NNW 8 13 1013.6 - 0.0 - - - - - - -
23/01:30am 11.9 NNW 7 11 1013.5 - 0.0 - - - - - - -
23/01:00am 12.0 NNW 8 12 1013.4 - 0.0 - - - - - - -
23/12:30am 12.3 NW 6 10 1013.4 - 0.0 - - - - - - -
23/12:00am 12.5 NW 8 12 1013.3 - 0.0 - - - - - - -
 
Date/Time
EST
Temp

°C
Wind Pressure Rain
since 9am
mm
Weather Cloud Vis
km
Sea
Height
m
Swell
Dir
 
Speed
knots
Gust
knots
hPa Trend Height
m
Period
s
Dir
22/11:30pm 12.3 NW 8 11 1013.2 - 0.0 - - - - - - -
22/11:00pm 12.5 WNW 8 12 1013.1 - 0.0 - - - - - - -
22/10:30pm 12.3 WNW 8 11 1013.1 - 0.0 - - - - - - -
22/10:00pm 11.9 NW 8 11 1013.0 - 0.0 - - - - - - -
22/09:30pm 12.4 WNW 8 10 1012.6 - 0.0 - - - - - - -
22/09:00pm 12.8 W 7 10 1012.2 - 0.0 - - - - - - -
22/08:30pm 13.7 WNW 10 15 1011.7 - 0.0 - - - - - - -
22/08:00pm 14.3 WNW 6 10 1011.6 - 0.0 - - - - - - -
22/07:30pm 14.4 WNW 4 9 1011.2 - 0.0 - - - - - - -
22/07:00pm 14.6 W 10 15 1010.6 - 0.0 - - - - - - -
22/06:30pm 14.2 WNW 4 7 1010.3 - 0.0 - - - - - - -
22/06:00pm 13.9 WNW 4 7 1009.8 - 0.0 - - - - - - -
22/05:30pm 14.5 W 15 22 1009.2 - 0.0 - - - - - - -
22/05:00pm 15.2 W 12 18 1008.8 - 0.0 - - - - - - -
22/04:30pm 16.0 W 14 20 1008.7 - 0.0 - - - - - - -
22/04:00pm 16.6 W 16 21 1008.3 - 0.0 - - - - - - -
22/03:30pm 16.8 W 17 24 1008.1 - 0.0 - - - - - - -
22/03:00pm 17.6 W 15 22 1008.0 - 0.0 - - - - - - -
22/02:30pm 17.5 W 19 23 1007.4 - 0.0 - - - - - - -
22/02:00pm 17.5 WSW 16 20 1007.1 - 0.0 - - - - - - -
22/01:30pm 17.7 WSW 12 15 1006.9 - 0.0 - - - - - - -
22/01:00pm 18.0 SW 9 11 1006.7 - 0.0 - - - - - - -
22/12:37pm 18.0 W 16 26 1006.0 - 0.0 - - - - - - -
22/12:30pm 18.0 WSW 11 15 1006.1 - 0.0 - - - - - - -
22/12:00pm 20.8 W 8 15 1006.0 - 0.0 - - - - - - -
22/11:30am 19.0 W 9 13 1006.1 - 0.0 - - - - - - -
22/11:00am 17.8 W 8 11 1005.9 - 0.0 - - - - - - -
22/10:30am 17.3 W 6 8 1005.6 - 0.0 - - - - - - -
22/10:00am 17.4 WNW 5 9 1005.7 - 0.0 - - - - - - -
22/09:30am 16.9 WNW 1 3 1005.5 - 0.0 - - - - - - -
22/09:00am 17.6 WNW 6 10 1005.4 - 3.0 - - - - - - -
22/08:30am 17.7 WNW 11 16 1005.1 - 3.0 - - - - - - -
22/08:00am 17.8 WNW 10 18 1005.1 - 3.0 - - - - - - -
22/07:30am 17.1 WNW 10 17 1004.3 - 3.0 - - - - - - -
22/07:00am 16.7 NW 8 12 1004.2 - 3.0 - - - - - - -
22/06:30am 17.0 NNW 8 14 1003.9 - 3.0 - - - - - - -
22/06:00am 15.9 N 7 9 1003.5 - 3.0 - - - - - - -
22/05:30am 15.9 N 7 10 1003.1 - 3.0 - - - - - - -
22/05:00am 15.0 N 8 11 1003.0 - 3.0 - - - - - - -
22/04:30am 14.7 N 10 13 1002.9 - 3.0 - - - - - - -
22/04:00am 14.5 N 9 12 1002.7 - 3.0 - - - - - - -
22/03:30am 14.9 N 9 14 1002.9 - 3.0 - - - - - - -
22/03:00am 14.8 N 7 15 1003.2 - 3.0 - - - - - - -
22/02:30am 14.3 NNE 13 18 1003.5 - 3.0 - - - - - - -
22/02:00am 14.5 NNE 16 22 1003.7 - 3.0 - - - - - - -
22/01:30am 14.6 NNE 19 23 1004.5 - 3.0 - - - - - - -
22/01:00am 14.4 NNE 22 29 1004.8 - 3.0 - - - - - - -
22/12:30am 14.1 N 20 32 1005.7 - 3.0 - - - - - - -
22/12:00am 13.7 NNE 18 29 1006.5 - 3.0 Recent precip. - - - - - -
 
Date/Time
EST
Temp

°C
Wind Pressure Rain
since 9am
mm
Weather Cloud Vis
km
Sea
Height
m
Swell
Dir
 
Speed
knots
Gust
knots
hPa Trend Height
m
Period
s
Dir
21/11:52pm 13.5 N 16 29 1007.0 - 3.0 - - - - - - -
21/11:30pm 13.0 NNE 15 22 1007.6 - 3.0 - - - - - - -
21/11:00pm 12.5 NNE 13 18 1008.4 - 2.8 - - - - - - -
21/10:30pm 12.6 NNE 13 18 1009.0 - 2.6 - - - - - - -
21/10:00pm 12.2 NNE 9 12 1009.8 - 2.4 - - - - - - -
21/09:30pm 11.8 NNE 9 11 1010.1 - 2.2 - - - - - - -
21/09:00pm 11.7 NNE 5 8 1010.6 - 1.6 Rain - - - - - -
21/08:30pm 11.7 NNE 7 8 1010.9 - 1.0 - - - - - - -
21/08:00pm 12.0 NNE 8 12 1011.0 - 0.2 - - - - - - -
21/07:30pm 12.1 NNE 6 10 1011.4 - 0.0 - - - - - - -
21/07:00pm 12.8 NNE 7 11 1011.6 - 0.0 - - - - - - -
21/06:30pm 12.8 NNE 10 14 1011.8 - 0.0 - - - - - - -
21/06:00pm 13.1 NNE 8 13 1012.2 - 0.0 - - - - - - -
21/05:30pm 13.2 NNE 10 14 1012.7 - 0.0 - - - - - - -
21/05:00pm 13.4 NE 10 13 1012.8 - 0.0 - - - - - - -
21/04:30pm 13.4 NNE 9 12 1013.2 - 0.0 - - - - - - -
21/04:00pm 13.5 NNE 11 14 1013.5 - 0.0 - - - - - - -
21/03:30pm 13.7 NNE 14 19 1013.5 - 0.0 - - - - - - -
21/03:00pm 13.3 NNE 12 17 1014.2 - 0.0 - - - - - - -
21/02:30pm 13.5 NE 16 19 1014.6 - 0.0 - - - - - - -
21/02:00pm 14.1 NE 16 21 1015.0 - 0.0 - - - - - - -
21/01:30pm 13.0 NE 16 20 1015.1 - 0.0 - - - - - - -
21/01:00pm 13.5 NE 14 18 1015.7 - 0.0 - - - - - - -
21/12:30pm 14.4 ENE 13 16 1016.4 - 0.0 - - - - - - -

Other Formats:

Comma delimited format used in spreadsheet applications
http://www.bom.gov.au/fwo/IDT60701/IDT60701.94951.axf

JavaScript Object Notation format (JSON) in row-major order
http://www.bom.gov.au/fwo/IDT60701/IDT60701.94951.json